createdAt,value
2018-12-19T00:01:42.129Z,11.27
2018-12-19T00:03:50.579Z,10.80
2018-12-19T00:05:59.365Z,10.93
2018-12-19T00:08:05.954Z,9.53
2018-12-19T00:10:12.230Z,15.30
2018-12-19T00:12:18.498Z,12.87
2018-12-19T00:14:25.450Z,18.73
2018-12-19T00:16:31.636Z,15.30
2018-12-19T00:18:38.811Z,17.30
2018-12-19T00:20:45.060Z,10.90
2018-12-19T00:22:51.288Z,10.50
2018-12-19T00:24:59.539Z,16.60
2018-12-19T00:27:08.027Z,11.43
2018-12-19T00:29:16.445Z,12.40
2018-12-19T00:31:24.706Z,10.20
2018-12-19T00:33:33.468Z,13.63
2018-12-19T00:35:42.527Z,15.03
2018-12-19T00:37:48.834Z,16.40
2018-12-19T00:39:54.942Z,14.77
2018-12-19T00:42:01.071Z,15.63
2018-12-19T00:44:07.382Z,14.00
2018-12-19T00:46:14.376Z,13.23
2018-12-19T00:48:20.985Z,16.07
2018-12-19T00:50:27.190Z,10.30
2018-12-19T00:52:33.328Z,11.20
2018-12-19T00:54:40.573Z,12.10
2018-12-19T00:56:47.093Z,11.33
2018-12-19T00:58:53.177Z,14.20
2018-12-19T01:00:59.893Z,12.03
2018-12-19T01:03:05.980Z,16.13
2018-12-19T01:05:12.454Z,12.27
2018-12-19T01:07:19.317Z,12.07
2018-12-19T01:09:26.251Z,9.50
2018-12-19T01:11:32.319Z,10.77
2018-12-19T01:13:38.447Z,11.20
2018-12-19T01:15:44.773Z,12.50
2018-12-19T01:17:51.070Z,12.20
2018-12-19T01:19:58.195Z,10.93
2018-12-19T01:22:04.654Z,12.00
2018-12-19T01:24:10.914Z,12.23
2018-12-19T01:26:17.039Z,11.40
2018-12-19T01:28:23.158Z,8.67
2018-12-19T01:30:29.690Z,11.87
2018-12-19T01:32:36.744Z,11.43
2018-12-19T01:34:42.943Z,13.13
2018-12-19T01:36:49.247Z,10.87
2018-12-19T01:38:55.389Z,9.70
2018-12-19T01:41:02.173Z,12.40
2018-12-19T01:43:08.717Z,9.07
2018-12-19T01:45:16.776Z,10.93
2018-12-19T01:47:22.849Z,11.87
2018-12-19T01:49:29.013Z,12.33
2018-12-19T01:51:36.181Z,11.33
2018-12-19T01:53:42.850Z,11.87
2018-12-19T01:55:51.484Z,11.10
2018-12-19T01:57:57.626Z,11.93
2018-12-19T02:00:03.943Z,8.67
2018-12-19T02:02:11.350Z,12.47
2018-12-19T02:04:17.559Z,15.27
2018-12-19T02:06:23.881Z,11.40
2018-12-19T02:08:36.496Z,11.47
2018-12-19T02:10:45.403Z,13.63
2018-12-19T02:12:51.686Z,10.57
2018-12-19T02:14:57.901Z,8.30
2018-12-19T02:17:04.177Z,11.37
2018-12-19T02:19:10.731Z,10.27
2018-12-19T02:21:16.904Z,10.40
2018-12-19T02:23:23.753Z,10.43
2018-12-19T02:25:30.445Z,9.57
2018-12-19T02:27:37.434Z,8.93
2018-12-19T02:29:44.645Z,10.70
2018-12-19T02:31:50.865Z,10.77
2018-12-19T02:33:57.575Z,9.77
2018-12-19T02:36:03.757Z,10.10
2018-12-19T02:38:09.889Z,9.80
2018-12-19T02:40:15.958Z,12.00
2018-12-19T02:42:22.098Z,10.27
2018-12-19T02:44:28.838Z,9.67
2018-12-19T02:46:35.240Z,9.20
2018-12-19T02:48:41.765Z,8.30
2018-12-19T02:50:47.949Z,10.40
2018-12-19T02:52:54.074Z,11.27
2018-12-19T02:57:23.626Z,11.00
2018-12-19T02:59:29.790Z,7.97
2018-12-19T03:01:37.414Z,8.53
2018-12-19T03:03:44.516Z,9.20
2018-12-19T03:05:51.076Z,9.27
2018-12-19T03:07:57.886Z,10.87
2018-12-19T03:10:04.389Z,10.97
2018-12-19T03:12:10.548Z,10.33
2018-12-19T03:14:17.365Z,11.23
2018-12-19T03:16:23.902Z,7.43
2018-12-19T03:18:30.775Z,10.40
2018-12-19T03:20:37.004Z,7.93
2018-12-19T03:22:43.359Z,17.17
2018-12-19T03:24:49.598Z,11.83
2018-12-19T03:26:55.674Z,7.03
2018-12-19T03:29:02.637Z,8.63
2018-12-19T03:31:08.766Z,6.77
2018-12-19T03:33:17.380Z,8.00
2018-12-19T03:35:23.907Z,9.57
2018-12-19T03:37:30.266Z,8.50
2018-12-19T03:39:36.548Z,8.70
2018-12-19T03:41:42.773Z,12.00
2018-12-19T03:43:49.484Z,7.13
2018-12-19T03:45:56.261Z,7.80
2018-12-19T03:48:02.586Z,6.07
2018-12-19T03:50:10.688Z,6.73
2018-12-19T03:52:16.954Z,10.27
2018-12-19T03:54:23.432Z,8.60
2018-12-19T03:56:30.360Z,8.47
2018-12-19T03:58:36.435Z,8.00
2018-12-19T04:00:42.649Z,9.47
2018-12-19T04:02:48.724Z,8.03
2018-12-19T04:04:54.852Z,8.03
2018-12-19T04:07:00.970Z,9.00
2018-12-19T04:09:08.312Z,6.80
2018-12-19T04:11:14.628Z,7.20
2018-12-19T04:13:21.416Z,10.67
2018-12-19T04:15:28.009Z,8.57
2018-12-19T04:17:34.908Z,7.87
2018-12-19T04:19:41.760Z,8.50
2018-12-19T04:21:50.013Z,6.33
2018-12-19T04:23:56.247Z,9.53
2018-12-19T04:26:02.379Z,6.27
2018-12-19T04:28:08.577Z,6.53
2018-12-19T04:30:14.623Z,7.97
2018-12-19T04:32:20.931Z,6.63
2018-12-19T04:34:27.376Z,7.40
2018-12-19T04:36:33.417Z,9.83
2018-12-19T04:38:40.519Z,6.73
2018-12-19T04:40:46.605Z,7.07
2018-12-19T04:42:52.668Z,7.27
2018-12-19T04:44:59.632Z,9.07
2018-12-19T04:47:06.436Z,7.20
2018-12-19T04:49:13.364Z,6.20
2018-12-19T04:51:19.663Z,7.50
2018-12-19T04:53:25.828Z,8.00
2018-12-19T04:55:31.933Z,6.70
2018-12-19T04:57:38.105Z,7.10
2018-12-19T04:59:44.219Z,9.53
2018-12-19T05:01:50.297Z,8.30
2018-12-19T05:03:56.550Z,8.53
2018-12-19T05:06:05.507Z,10.60
2018-12-19T05:08:11.716Z,8.60
2018-12-19T05:10:17.945Z,11.37
2018-12-19T05:12:23.994Z,13.03
2018-12-19T05:14:31.294Z,10.93
2018-12-19T05:16:37.802Z,11.87
2018-12-19T05:18:44.089Z,16.50
2018-12-19T05:20:53.006Z,18.50
2018-12-19T05:22:59.134Z,44.83
2018-12-19T05:25:06.126Z,31.77
2018-12-19T05:27:12.300Z,16.13
2018-12-19T05:29:18.463Z,26.10
2018-12-19T05:31:24.728Z,15.77
2018-12-19T05:35:49.131Z,50.57
2018-12-19T05:37:55.469Z,53.40
2018-12-19T05:40:01.809Z,32.00
2018-12-19T05:42:07.978Z,18.87
2018-12-19T05:44:14.880Z,13.17
2018-12-19T05:46:22.790Z,11.93
2018-12-19T05:48:28.899Z,10.20
2018-12-19T05:50:35.740Z,12.23
2018-12-19T05:52:41.936Z,13.10
2018-12-19T05:54:48.441Z,10.40
2018-12-19T05:56:54.562Z,18.93
2018-12-19T05:59:00.838Z,7.70
2018-12-19T06:01:11.684Z,10.40
2018-12-19T06:03:21.630Z,8.07
2018-12-19T06:05:28.067Z,9.67
2018-12-19T06:07:34.122Z,8.37
2018-12-19T06:09:40.549Z,7.37
2018-12-19T06:11:46.642Z,8.53
2018-12-19T06:13:55.306Z,7.27
2018-12-19T06:16:02.081Z,8.07
2018-12-19T06:18:08.184Z,9.20
2018-12-19T06:20:15.005Z,8.60
2018-12-19T06:22:21.476Z,7.87
2018-12-19T06:24:27.907Z,13.40
2018-12-19T06:26:35.859Z,10.63
2018-12-19T06:28:41.932Z,14.23
2018-12-19T06:30:48.664Z,13.63
2018-12-19T06:32:55.536Z,13.70
2018-12-19T06:35:01.722Z,13.67
2018-12-19T06:37:09.134Z,13.30
2018-12-19T06:39:16.222Z,14.27
2018-12-19T06:41:23.724Z,14.40
2018-12-19T06:43:29.807Z,11.17
2018-12-19T06:45:36.929Z,11.07
2018-12-19T06:47:43.206Z,8.90
2018-12-19T06:49:49.433Z,10.73
2018-12-19T06:51:55.564Z,11.00
2018-12-19T06:54:01.765Z,14.10
2018-12-19T06:56:08.030Z,10.53
2018-12-19T06:58:14.090Z,7.93
2018-12-19T07:00:20.585Z,12.90
2018-12-19T07:02:27.592Z,11.47
2018-12-19T07:04:33.746Z,9.93
2018-12-19T07:06:39.872Z,7.30
2018-12-19T07:08:46.075Z,7.13
2018-12-19T07:10:52.371Z,7.93
2018-12-19T07:13:01.415Z,9.23
2018-12-19T07:15:08.134Z,8.27
2018-12-19T07:17:14.316Z,7.33
2018-12-19T07:19:20.634Z,9.67
2018-12-19T07:21:28.314Z,7.93
2018-12-19T07:23:34.563Z,8.20
2018-12-19T07:25:41.145Z,8.33
2018-12-19T07:27:48.110Z,7.27
2018-12-19T07:29:54.228Z,7.50
2018-12-19T07:32:00.537Z,7.30
2018-12-19T07:34:07.082Z,5.80
2018-12-19T07:36:13.373Z,7.07
2018-12-19T07:38:19.617Z,10.40
2018-12-19T07:40:26.102Z,7.47
2018-12-19T07:42:34.391Z,6.70
2018-12-19T07:44:41.648Z,12.10
2018-12-19T07:46:47.732Z,10.23
2018-12-19T07:48:54.000Z,20.97
2018-12-19T07:51:00.274Z,22.93
2018-12-19T07:53:06.614Z,19.87
2018-12-19T07:55:13.253Z,30.93
2018-12-19T07:57:19.549Z,23.97
2018-12-19T07:59:25.967Z,147.67
2018-12-19T08:01:32.154Z,141.90
2018-12-19T08:03:38.244Z,67.60
2018-12-19T08:05:44.561Z,205.47
2018-12-19T08:07:50.648Z,74.70
2018-12-19T08:09:57.681Z,23.67
2018-12-19T08:12:03.856Z,18.57
2018-12-19T08:14:10.768Z,13.70
2018-12-19T08:16:17.298Z,13.43
2018-12-19T08:18:24.173Z,10.20
2018-12-19T08:20:32.089Z,69.93
2018-12-19T08:22:38.853Z,25.63
2018-12-19T08:24:45.041Z,16.10
2018-12-19T08:26:53.396Z,14.77
2018-12-19T08:29:01.964Z,15.60
2018-12-19T08:31:09.713Z,12.20
2018-12-19T08:33:16.173Z,14.10
2018-12-19T08:35:22.501Z,9.90
2018-12-19T08:37:29.030Z,10.00
2018-12-19T08:39:35.562Z,12.63
2018-12-19T08:41:43.544Z,14.10
2018-12-19T08:43:49.857Z,12.40
2018-12-19T08:45:58.209Z,15.67
2018-12-19T08:48:04.977Z,13.83
2018-12-19T08:50:13.116Z,13.07
2018-12-19T08:52:19.530Z,10.90
2018-12-19T08:54:26.782Z,9.73
2018-12-19T08:56:33.033Z,10.30
2018-12-19T08:58:39.546Z,9.93
2018-12-19T09:00:45.970Z,8.23
2018-12-19T09:02:52.111Z,7.47
2018-12-19T09:04:58.299Z,10.00
2018-12-19T09:07:04.513Z,10.60
2018-12-19T09:09:10.856Z,11.50
2018-12-19T09:11:17.187Z,11.10
2018-12-19T09:13:26.633Z,13.87
2018-12-19T09:15:38.613Z,12.90
2018-12-19T09:17:45.829Z,10.60
2018-12-19T09:19:52.411Z,8.83
2018-12-19T09:21:58.859Z,9.40
2018-12-19T09:24:07.151Z,8.33
2018-12-19T09:26:13.417Z,9.13
2018-12-19T09:28:19.761Z,9.37
2018-12-19T09:30:26.040Z,13.90
2018-12-19T09:32:32.217Z,8.53
2018-12-19T09:34:38.487Z,10.77
2018-12-19T09:36:45.935Z,30.20
2018-12-19T09:38:52.082Z,39.63
2018-12-19T09:40:58.194Z,16.53
2018-12-19T09:43:04.565Z,13.17
2018-12-19T09:45:13.569Z,18.17
2018-12-19T09:47:19.897Z,21.67
2018-12-19T09:49:26.046Z,23.97
2018-12-19T09:51:33.531Z,14.80
2018-12-19T09:53:41.594Z,16.23
2018-12-19T09:55:47.929Z,19.37
2018-12-19T09:57:54.193Z,16.10
2018-12-19T10:00:00.515Z,15.23
2018-12-19T10:02:08.901Z,16.10
2018-12-19T10:04:15.894Z,14.50
2018-12-19T10:06:22.080Z,20.63
2018-12-19T10:08:35.283Z,19.90
2018-12-19T10:13:09.445Z,16.20
2018-12-19T10:15:16.273Z,13.57
2018-12-19T10:17:30.236Z,13.27
2018-12-19T10:19:36.560Z,22.40
2018-12-19T10:21:43.478Z,12.30
2018-12-19T10:23:53.010Z,15.57
2018-12-19T10:26:04.135Z,12.23
2018-12-19T10:28:14.961Z,11.33
2018-12-19T10:30:28.662Z,15.50
2018-12-19T10:32:40.578Z,12.00
2018-12-19T10:34:46.730Z,13.53
2018-12-19T10:36:53.080Z,18.83
2018-12-19T10:39:00.327Z,15.40
2018-12-19T10:41:06.583Z,13.23
2018-12-19T10:43:13.753Z,16.70
2018-12-19T10:45:21.698Z,13.73
2018-12-19T10:47:29.381Z,11.73
2018-12-19T10:49:35.715Z,17.43
2018-12-19T10:51:42.978Z,21.83
2018-12-19T10:53:49.236Z,17.43
2018-12-19T10:55:55.773Z,14.60
2018-12-19T10:58:02.573Z,13.63
2018-12-19T11:00:18.064Z,12.80
2018-12-19T11:02:24.274Z,14.70
2018-12-19T11:04:30.470Z,16.37
2018-12-19T11:06:37.361Z,23.73
2018-12-19T11:08:45.379Z,13.43
2018-12-19T11:10:51.585Z,12.90
2018-12-19T11:12:58.839Z,13.10
2018-12-19T11:17:28.890Z,15.53
2018-12-19T11:19:37.770Z,15.13
2018-12-19T11:21:44.059Z,14.90
2018-12-19T11:23:51.139Z,11.47
2018-12-19T11:25:57.226Z,11.53
2018-12-19T11:28:03.404Z,11.53
2018-12-19T11:30:10.627Z,10.60
2018-12-19T11:32:17.535Z,9.40
2018-12-19T11:34:26.975Z,12.13
2018-12-19T11:36:34.064Z,15.80
2018-12-19T11:38:41.972Z,14.80
2018-12-19T11:40:48.441Z,13.93
2018-12-19T11:42:54.695Z,11.97
2018-12-19T11:45:02.251Z,9.40
2018-12-19T11:47:08.350Z,11.17
2018-12-19T11:49:15.457Z,17.00
2018-12-19T11:51:21.665Z,12.63
2018-12-19T11:53:27.958Z,11.77
2018-12-19T11:55:34.652Z,13.60
2018-12-19T11:57:41.899Z,14.80
2018-12-19T11:59:49.050Z,16.13
2018-12-19T12:01:55.189Z,11.83
2018-12-19T12:04:03.258Z,10.70
2018-12-19T12:06:12.128Z,15.67
2018-12-19T12:08:21.593Z,15.30
2018-12-19T12:10:27.842Z,22.97
2018-12-19T12:12:36.256Z,23.37
2018-12-19T12:14:42.356Z,26.23
2018-12-19T12:16:48.509Z,28.83
2018-12-19T12:18:55.546Z,20.53
2018-12-19T12:21:02.841Z,20.13
2018-12-19T12:23:12.132Z,16.13
2018-12-19T12:25:18.489Z,17.67
2018-12-19T12:27:24.592Z,14.77
2018-12-19T12:29:31.030Z,12.30
2018-12-19T12:31:37.238Z,19.87
2018-12-19T12:33:43.387Z,11.53
2018-12-19T12:35:50.770Z,12.33
2018-12-19T12:37:57.623Z,15.23
2018-12-19T12:40:05.457Z,17.30
2018-12-19T12:42:13.103Z,21.17
2018-12-19T12:44:19.922Z,11.67
2018-12-19T12:46:26.112Z,12.27
2018-12-19T12:48:32.248Z,12.80
2018-12-19T12:50:38.379Z,15.03
2018-12-19T12:52:44.559Z,13.23
2018-12-19T12:54:50.704Z,16.43
2018-12-19T12:56:56.935Z,16.60
2018-12-19T12:59:03.233Z,14.10
2018-12-19T13:01:09.681Z,18.17
2018-12-19T13:03:15.951Z,16.93
2018-12-19T13:05:24.393Z,15.17
2018-12-19T13:07:30.692Z,16.33
2018-12-19T13:09:36.808Z,13.70
2018-12-19T13:11:43.109Z,11.77
2018-12-19T13:13:49.367Z,16.13
2018-12-19T13:15:55.763Z,14.93
2018-12-19T13:18:02.619Z,19.33
2018-12-19T13:20:08.736Z,14.73
2018-12-19T13:22:14.947Z,14.70
2018-12-19T13:24:21.093Z,18.73
2018-12-19T13:26:27.215Z,14.63
2018-12-19T13:28:33.591Z,18.10
2018-12-19T13:30:39.763Z,16.03
2018-12-19T13:32:47.389Z,18.10
2018-12-19T13:34:54.611Z,14.37
2018-12-19T13:37:01.311Z,15.80
2018-12-19T13:39:08.703Z,12.63
2018-12-19T13:41:14.907Z,16.40
2018-12-19T13:43:21.045Z,16.43
2018-12-19T13:45:27.963Z,12.13
2018-12-19T13:47:34.259Z,14.10
2018-12-19T13:49:40.411Z,16.53
2018-12-19T13:51:46.574Z,16.90
2018-12-19T13:53:53.178Z,13.10
2018-12-19T13:55:59.356Z,13.77
2018-12-19T13:58:07.178Z,13.53
2018-12-19T14:00:15.055Z,16.23
2018-12-19T14:02:21.231Z,16.60
2018-12-19T14:04:27.753Z,16.10
2018-12-19T14:06:34.029Z,26.90
2018-12-19T14:08:40.967Z,40.77
2018-12-19T14:10:48.461Z,27.50
2018-12-19T14:12:54.598Z,25.03
2018-12-19T14:15:00.955Z,15.43
2018-12-19T14:17:07.245Z,19.67
2018-12-19T14:19:13.666Z,13.97
2018-12-19T14:21:19.947Z,15.50
2018-12-19T14:23:26.277Z,13.53
2018-12-19T14:25:32.474Z,16.73
2018-12-19T14:27:38.633Z,16.53
2018-12-19T14:29:44.807Z,12.20
2018-12-19T14:31:51.434Z,15.85
2018-12-19T14:33:58.204Z,14.87
2018-12-19T14:36:05.103Z,14.60
2018-12-19T14:38:11.281Z,16.93
2018-12-19T14:40:17.463Z,20.73
2018-12-19T14:42:23.598Z,24.60
2018-12-19T14:46:48.895Z,26.10
2018-12-19T14:48:55.420Z,29.07
2018-12-19T14:51:02.842Z,35.60
2018-12-19T14:53:09.306Z,27.80
2018-12-19T14:55:15.616Z,18.13
2018-12-19T14:57:21.990Z,24.37
2018-12-19T14:59:28.148Z,23.37
2018-12-19T15:01:34.435Z,22.30
2018-12-19T15:03:40.575Z,20.43
2018-12-19T15:05:46.718Z,21.40
2018-12-19T15:07:53.667Z,25.73
2018-12-19T15:10:00.047Z,30.90
2018-12-19T15:12:06.335Z,25.27
2018-12-19T15:14:13.284Z,29.33
2018-12-19T15:16:23.782Z,16.10
2018-12-19T15:18:30.031Z,19.70
2018-12-19T15:20:36.372Z,19.03
2018-12-19T15:22:42.609Z,20.33
2018-12-19T15:24:48.814Z,21.63
2018-12-19T15:26:54.948Z,21.57
2018-12-19T15:29:01.705Z,21.10
2018-12-19T15:31:07.990Z,22.40
2018-12-19T15:33:14.241Z,21.70
2018-12-19T15:35:20.367Z,17.37
2018-12-19T15:37:26.515Z,15.00
2018-12-19T15:39:32.772Z,20.20
2018-12-19T15:41:39.017Z,25.70
2018-12-19T15:43:45.131Z,19.00
2018-12-19T15:45:51.852Z,22.73
2018-12-19T15:47:59.074Z,28.07
2018-12-19T15:50:07.187Z,23.27
2018-12-19T15:52:13.540Z,32.47
2018-12-19T15:54:20.281Z,33.93
2018-12-19T15:56:26.497Z,43.17
2018-12-19T15:58:33.260Z,30.13
2018-12-19T16:00:39.578Z,29.83
2018-12-19T16:02:46.821Z,24.87
2018-12-19T16:04:53.142Z,26.13
2018-12-19T16:06:59.812Z,22.77
2018-12-19T16:09:08.382Z,31.20
2018-12-19T16:11:14.715Z,29.40
2018-12-19T16:13:21.244Z,26.00
2018-12-19T16:15:27.588Z,31.73
2018-12-19T16:17:34.088Z,22.90
2018-12-19T16:19:40.438Z,29.67
2018-12-19T16:21:47.235Z,19.73
2018-12-19T16:23:53.653Z,28.27
2018-12-19T16:25:59.929Z,22.10
2018-12-19T16:28:06.338Z,26.73
2018-12-19T16:30:13.375Z,29.00
2018-12-19T16:32:20.090Z,34.57
2018-12-19T16:34:26.305Z,37.37
2018-12-19T16:36:32.640Z,28.17
2018-12-19T16:38:38.930Z,23.10
2018-12-19T16:40:45.379Z,22.87
2018-12-19T16:42:51.679Z,17.30
2018-12-19T16:44:58.767Z,19.63
2018-12-19T16:47:05.223Z,20.67
2018-12-19T16:49:11.599Z,23.77
2018-12-19T16:51:17.845Z,20.50
2018-12-19T16:53:24.105Z,21.00
2018-12-19T16:55:30.274Z,22.93
2018-12-19T16:57:36.441Z,22.83
2018-12-19T16:59:43.432Z,22.20
2018-12-19T17:01:51.158Z,22.50
2018-12-19T17:03:57.883Z,21.70
2018-12-19T17:06:04.097Z,22.17
2018-12-19T17:08:10.509Z,24.50
2018-12-19T17:10:16.884Z,18.83
2018-12-19T17:12:23.092Z,18.73
2018-12-19T17:14:29.904Z,21.63
2018-12-19T17:16:36.102Z,20.27
2018-12-19T17:18:42.273Z,21.30
2018-12-19T17:20:49.890Z,19.47
2018-12-19T17:22:56.321Z,26.17
2018-12-19T17:25:02.588Z,15.93
2018-12-19T17:27:09.135Z,16.60
2018-12-19T17:29:15.193Z,18.27
2018-12-19T17:31:21.713Z,17.83
2018-12-19T17:33:28.080Z,14.47
2018-12-19T17:35:34.184Z,14.57
2018-12-19T17:37:40.396Z,21.50
2018-12-19T17:39:46.407Z,21.20
2018-12-19T17:41:52.706Z,13.50
2018-12-19T17:43:59.179Z,18.87
2018-12-19T17:46:06.009Z,19.10
2018-12-19T17:48:12.101Z,17.97
2018-12-19T17:50:19.461Z,15.67
2018-12-19T17:52:26.231Z,20.57
2018-12-19T17:54:32.395Z,15.30
2018-12-19T17:56:38.979Z,19.70
2018-12-19T17:58:45.125Z,21.33
2018-12-19T18:00:53.349Z,16.10
2018-12-19T18:02:59.607Z,14.20
2018-12-19T18:05:06.269Z,17.87
2018-12-19T18:07:12.547Z,16.43
2018-12-19T18:11:39.549Z,14.90
2018-12-19T18:13:46.027Z,17.23
2018-12-19T18:15:52.448Z,13.20
2018-12-19T18:17:58.574Z,15.33
2018-12-19T18:20:06.142Z,13.70
2018-12-19T18:22:12.195Z,19.70
2018-12-19T18:24:18.371Z,19.17
2018-12-19T18:26:24.500Z,14.10
2018-12-19T18:28:30.698Z,18.67
2018-12-19T18:30:37.933Z,15.60
2018-12-19T18:32:44.323Z,18.73
2018-12-19T18:34:51.114Z,20.93
2018-12-19T18:36:57.389Z,17.67
2018-12-19T18:39:05.614Z,19.93
2018-12-19T18:41:12.958Z,18.40
2018-12-19T18:43:19.149Z,21.97
2018-12-19T18:45:26.247Z,19.07
2018-12-19T18:47:34.601Z,19.70
2018-12-19T18:49:40.764Z,20.40
2018-12-19T18:51:47.121Z,18.30
2018-12-19T18:53:53.521Z,20.27
2018-12-19T18:55:59.901Z,20.53
2018-12-19T18:58:07.207Z,32.30
2018-12-19T19:02:38.373Z,32.30
2018-12-19T19:04:44.693Z,29.90
2018-12-19T19:06:51.089Z,28.63
2018-12-19T19:08:57.559Z,27.67
2018-12-19T19:11:03.818Z,30.87
2018-12-19T19:13:10.096Z,27.53
2018-12-19T19:15:16.344Z,29.70
2018-12-19T19:17:22.603Z,28.63
2018-12-19T19:21:46.586Z,23.27
2018-12-19T19:23:54.231Z,25.13
2018-12-19T19:26:00.538Z,23.20
2018-12-19T19:28:06.748Z,24.17
2018-12-19T19:30:13.203Z,20.30
2018-12-19T19:32:19.484Z,23.77
2018-12-19T19:34:26.494Z,29.03
2018-12-19T19:36:33.342Z,24.00
2018-12-19T19:38:39.646Z,18.67
2018-12-19T19:40:45.871Z,21.07
2018-12-19T19:45:09.688Z,34.80
2018-12-19T19:47:15.792Z,28.67
2018-12-19T19:49:22.152Z,20.83
2018-12-19T19:51:28.372Z,20.00
2018-12-19T19:53:34.567Z,22.87
2018-12-19T19:55:40.976Z,23.90
2018-12-19T19:57:47.105Z,22.27
2018-12-19T19:59:53.395Z,23.40
2018-12-19T20:01:59.798Z,25.70
2018-12-19T20:04:06.046Z,28.63
2018-12-19T20:06:12.391Z,30.40
2018-12-19T20:08:18.577Z,26.93
2018-12-19T20:10:24.847Z,25.60
2018-12-19T20:12:31.752Z,29.83
2018-12-19T20:14:37.911Z,30.97
2018-12-19T20:16:49.359Z,23.77
2018-12-19T20:18:55.568Z,21.03
2018-12-19T20:21:01.764Z,22.70
2018-12-19T20:23:08.056Z,27.03
2018-12-19T20:25:14.179Z,24.50
2018-12-19T20:27:21.404Z,21.57
2018-12-19T20:29:27.738Z,18.90
2018-12-19T20:31:33.903Z,17.30
2018-12-19T20:33:40.254Z,19.90
2018-12-19T20:35:46.419Z,19.67
2018-12-19T20:37:52.638Z,18.23
2018-12-19T20:39:58.923Z,17.97
2018-12-19T20:42:05.735Z,20.60
2018-12-19T20:44:12.090Z,20.50
2018-12-19T20:46:18.304Z,21.10
2018-12-19T20:48:24.472Z,22.50
2018-12-19T20:50:31.546Z,27.00
2018-12-19T20:52:38.002Z,21.93
2018-12-19T20:54:44.159Z,23.23
2018-12-19T20:56:54.655Z,21.87
2018-12-19T20:59:00.835Z,19.97
2018-12-19T21:01:07.113Z,28.23
2018-12-19T21:03:13.621Z,25.30
2018-12-19T21:05:19.723Z,23.67
2018-12-19T21:07:26.221Z,27.00
2018-12-19T21:09:32.497Z,25.40
2018-12-19T21:11:38.821Z,21.47
2018-12-19T21:13:46.863Z,27.73
2018-12-19T21:15:53.947Z,27.70
2018-12-19T21:18:05.747Z,23.90
2018-12-19T21:20:11.839Z,26.43
2018-12-19T21:22:18.127Z,20.73
2018-12-19T21:24:24.418Z,20.23
2018-12-19T21:26:30.563Z,20.53
2018-12-19T21:28:36.830Z,24.20
2018-12-19T21:30:42.957Z,22.53
2018-12-19T21:32:49.226Z,23.47
2018-12-19T21:34:55.538Z,21.73
2018-12-19T21:37:03.020Z,21.60
2018-12-19T21:39:11.796Z,21.97
2018-12-19T21:41:17.960Z,22.53
2018-12-19T21:43:24.737Z,28.63
2018-12-19T21:45:30.873Z,24.87
2018-12-19T21:47:37.096Z,21.30
2018-12-19T21:49:43.256Z,23.53
2018-12-19T21:51:49.526Z,16.20
2018-12-19T21:53:55.745Z,19.23
2018-12-19T21:56:02.793Z,19.30
2018-12-19T21:58:09.564Z,24.73
2018-12-19T22:00:19.346Z,28.40
2018-12-19T22:02:25.924Z,27.17
2018-12-19T22:04:32.286Z,41.63
2018-12-19T22:06:38.592Z,26.80
2018-12-19T22:08:45.720Z,29.20
2018-12-19T22:10:52.653Z,24.00
2018-12-19T22:12:58.887Z,24.07
2018-12-19T22:15:06.112Z,20.67
2018-12-19T22:17:17.367Z,26.40
2018-12-19T22:19:23.639Z,30.97
2018-12-19T22:23:59.795Z,27.57
2018-12-19T22:26:06.083Z,28.47
2018-12-19T22:28:13.190Z,29.53
2018-12-19T22:30:19.826Z,25.57
2018-12-19T22:32:26.171Z,25.53
2018-12-19T22:34:32.378Z,21.03
2018-12-19T22:36:38.574Z,21.67
2018-12-19T22:38:44.733Z,21.17
2018-12-19T22:40:51.003Z,17.90
2018-12-19T22:42:57.150Z,21.70
2018-12-19T22:45:04.322Z,16.13
2018-12-19T22:47:11.107Z,19.77
2018-12-19T22:49:17.554Z,19.40
2018-12-19T22:51:23.799Z,26.70
2018-12-19T22:53:30.712Z,19.90
2018-12-19T22:55:37.020Z,18.97
2018-12-19T22:57:43.188Z,17.70
2018-12-19T22:59:50.673Z,21.30
2018-12-19T23:02:02.105Z,21.77
2018-12-19T23:04:08.764Z,24.57
2018-12-19T23:06:16.997Z,20.57
2018-12-19T23:08:23.697Z,21.13
2018-12-19T23:10:30.039Z,22.70
2018-12-19T23:12:36.380Z,21.03
2018-12-19T23:14:43.057Z,26.83
2018-12-19T23:16:54.780Z,27.90
2018-12-19T23:19:06.663Z,32.97
2018-12-19T23:21:18.518Z,29.33
2018-12-19T23:23:30.802Z,28.77
2018-12-19T23:25:42.396Z,41.50
2018-12-19T23:27:50.633Z,32.00
2018-12-19T23:29:56.884Z,27.70
2018-12-19T23:34:28.372Z,25.70
2018-12-19T23:36:35.335Z,22.77
2018-12-19T23:38:41.990Z,20.40
2018-12-19T23:40:48.425Z,20.50
2018-12-19T23:42:54.652Z,17.60
2018-12-19T23:45:01.870Z,17.57
2018-12-19T23:47:08.231Z,18.00
2018-12-19T23:49:14.646Z,18.87
2018-12-19T23:51:20.891Z,16.40
2018-12-19T23:53:27.019Z,15.77
2018-12-19T23:55:38.713Z,13.80
2018-12-19T23:57:44.770Z,11.80
2018-12-19T23:59:51.654Z,15.97
